Ana Sayfa
METAR-TAF:

METAR-TAF

Havaalanları :

Omaha, Nebraska, Amerika Birleşik Devletleri

Enlem: 41-11-45N, Boylam: 096-06-44W, yükseklik: 320 m

Güncel hava durumu gözlemi

Rapor saat 17:15 UTC de 35 dakika önce yapıldı.
Rüzgar kuzey/kuzeydoğudan 5 kt
Sıcaklık 21°C
Nem 64%
Basınç 1024 hPa
Görüş mesafesi: 16.1 km
7000 ft yükseklikte parçalı bulutlu

METAR: KMLE 191715Z AUTO 03005KT 10SM SCT070 21/14 A3025 RMK AO2 T02130135

Saat: 12:50 (17:50 UTC)


TAF: eksik

4.000'den fazla havaalanı için hava durumu gözlemleri ve tahminleri (METAR ve TAF raporları).

Kullanılabilir istasyonlar harita üzerinde sarı ve kırmızı noktalarla gösterilir.

İstasyonun adını görmek için fareyi noktanın üzerinde gezdirin.

Sonrasında hava gözlem ve tahminlerini görmek için tıklayın.

Haritayı değiştirmek için: yaklaştırmak için siyah artı işaretli yeşil düğmeye ve uzaklaştırmak için de eksi işaretli düğmeye hızla tıklayın; bitişik haritalar için yeşil okları kullanın.


METAR-TAF: